sensor_id;sensor_type;location;lat;lon;timestamp;pressure;altitude;pressure_sealevel;temperature;humidity
29371;BME280;16357;52.188;7.838;2023-04-06T00:01:50;101160.47;;;6.44;38.71
29371;BME280;16357;52.188;7.838;2023-04-06T00:04:17;101159.88;;;6.40;38.28
29371;BME280;16357;52.188;7.838;2023-04-06T00:06:43;101151.25;;;6.36;38.88
29371;BME280;16357;52.188;7.838;2023-04-06T00:09:10;101142.66;;;6.33;39.04
29371;BME280;16357;52.188;7.838;2023-04-06T00:11:36;101149.91;;;6.31;39.25
29371;BME280;16357;52.188;7.838;2023-04-06T00:14:02;101143.13;;;6.27;39.20
29371;BME280;16357;52.188;7.838;2023-04-06T00:16:29;101147.84;;;6.23;39.76
29371;BME280;16357;52.188;7.838;2023-04-06T00:18:56;101149.75;;;6.21;39.20
29371;BME280;16357;52.188;7.838;2023-04-06T00:21:22;101138.50;;;6.18;39.72
29371;BME280;16357;52.188;7.838;2023-04-06T00:23:49;101138.75;;;6.14;39.14
29371;BME280;16357;52.188;7.838;2023-04-06T00:26:16;101135.34;;;6.12;39.06
29371;BME280;16357;52.188;7.838;2023-04-06T00:28:42;101131.09;;;6.10;38.90
29371;BME280;16357;52.188;7.838;2023-04-06T00:31:09;101129.53;;;6.07;39.07
29371;BME280;16357;52.188;7.838;2023-04-06T00:33:35;101132.19;;;6.07;39.12
29371;BME280;16357;52.188;7.838;2023-04-06T00:36:02;101123.47;;;6.05;38.77
29371;BME280;16357;52.188;7.838;2023-04-06T00:38:28;101123.47;;;6.05;38.86
29371;BME280;16357;52.188;7.838;2023-04-06T00:40:55;101124.34;;;6.06;39.16
29371;BME280;16357;52.188;7.838;2023-04-06T00:43:21;101123.47;;;6.05;38.86
29371;BME280;16357;52.188;7.838;2023-04-06T00:45:48;101118.13;;;6.05;39.15
29371;BME280;16357;52.188;7.838;2023-04-06T00:48:14;101115.59;;;6.04;39.12
29371;BME280;16357;52.188;7.838;2023-04-06T00:50:42;101111.22;;;6.03;38.91
29371;BME280;16357;52.188;7.838;2023-04-06T00:53:08;101112.09;;;6.03;39.04
29371;BME280;16357;52.188;7.838;2023-04-06T00:55:34;101102.38;;;6.02;38.60
29371;BME280;16357;52.188;7.838;2023-04-06T00:58:02;101110.38;;;6.02;39.25
29371;BME280;16357;52.188;7.838;2023-04-06T01:00:28;101106.03;;;6.01;39.23
29371;BME280;16357;52.188;7.838;2023-04-06T01:02:55;101099.88;;;6.01;38.65
29371;BME280;16357;52.188;7.838;2023-04-06T01:05:22;101099.00;;;6.00;39.01
29371;BME280;16357;52.188;7.838;2023-04-06T01:07:48;101091.97;;;5.99;39.08
29371;BME280;16357;52.188;7.838;2023-04-06T01:10:28;101091.13;;;5.99;38.81
29371;BME280;16357;52.188;7.838;2023-04-06T01:12:54;101088.47;;;5.99;38.88
29371;BME280;16357;52.188;7.838;2023-04-06T01:15:21;101089.41;;;5.98;38.76
29371;BME280;16357;52.188;7.838;2023-04-06T01:17:48;101093.91;;;5.97;38.85
29371;BME280;16357;52.188;7.838;2023-04-06T01:20:14;101086.91;;;5.96;38.87
29371;BME280;16357;52.188;7.838;2023-04-06T01:22:41;101083.50;;;5.94;38.91
29371;BME280;16357;52.188;7.838;2023-04-06T01:25:08;101088.81;;;5.94;38.91
29371;BME280;16357;52.188;7.838;2023-04-06T01:27:34;101081.78;;;5.93;38.98
29371;BME280;16357;52.188;7.838;2023-04-06T01:30:01;101090.72;;;5.92;38.91
29371;BME280;16357;52.188;7.838;2023-04-06T01:32:28;101082.03;;;5.90;39.06
29371;BME280;16357;52.188;7.838;2023-04-06T01:34:54;101087.44;;;5.88;38.82
29371;BME280;16357;52.188;7.838;2023-04-06T01:37:21;101086.72;;;5.86;39.15
29371;BME280;16357;52.188;7.838;2023-04-06T01:39:47;101075.31;;;5.84;39.60
29371;BME280;16357;52.188;7.838;2023-04-06T01:42:14;101071.97;;;5.82;39.21
29371;BME280;16357;52.188;7.838;2023-04-06T01:44:40;101079.06;;;5.82;39.64
29371;BME280;16357;52.188;7.838;2023-04-06T01:47:07;101068.66;;;5.79;39.40
29371;BME280;16357;52.188;7.838;2023-04-06T01:49:33;101067.94;;;5.77;39.35
29371;BME280;16357;52.188;7.838;2023-04-06T01:52:00;101067.22;;;5.75;39.23
29371;BME280;16357;52.188;7.838;2023-04-06T01:54:26;101062.97;;;5.72;39.52
29371;BME280;16357;52.188;7.838;2023-04-06T01:56:53;101060.41;;;5.70;39.35
29371;BME280;16357;52.188;7.838;2023-04-06T01:59:19;101065.00;;;5.68;39.35
29371;BME280;16357;52.188;7.838;2023-04-06T02:01:46;101068.75;;;5.66;39.44
29371;BME280;16357;52.188;7.838;2023-04-06T02:04:12;101061.84;;;5.63;39.90
29371;BME280;16357;52.188;7.838;2023-04-06T02:06:40;101065.56;;;5.61;40.09
29371;BME280;16357;52.188;7.838;2023-04-06T02:09:06;101062.22;;;5.59;39.69
29371;BME280;16357;52.188;7.838;2023-04-06T02:11:33;101057.13;;;5.56;39.82
29371;BME280;16357;52.188;7.838;2023-04-06T02:13:59;101054.56;;;5.54;40.23
29371;BME280;16357;52.188;7.838;2023-04-06T02:16:27;101055.66;;;5.52;40.29
29371;BME280;16357;52.188;7.838;2023-04-06T02:18:53;101061.22;;;5.48;39.93
29371;BME280;16357;52.188;7.838;2023-04-06T02:21:20;101064.94;;;5.46;39.84
29371;BME280;16357;52.188;7.838;2023-04-06T02:23:47;101063.38;;;5.43;40.05
29371;BME280;16357;52.188;7.838;2023-04-06T02:26:13;101055.63;;;5.40;40.28
29371;BME280;16357;52.188;7.838;2023-04-06T02:28:41;101056.69;;;5.38;40.16
29371;BME280;16357;52.188;7.838;2023-04-06T02:31:08;101054.28;;;5.35;40.24
29371;BME280;16357;52.188;7.838;2023-04-06T02:33:34;101057.13;;;5.32;40.16
29371;BME280;16357;52.188;7.838;2023-04-06T02:36:01;101056.41;;;5.30;40.22
29371;BME280;16357;52.188;7.838;2023-04-06T02:38:27;101053.25;;;5.24;40.33
29371;BME280;16357;52.188;7.838;2023-04-06T02:40:53;101050.69;;;5.23;40.65
29371;BME280;16357;52.188;7.838;2023-04-06T02:43:20;101053.59;;;5.20;40.77
29371;BME280;16357;52.188;7.838;2023-04-06T02:45:46;101051.16;;;5.17;40.78
29371;BME280;16357;52.188;7.838;2023-04-06T02:48:13;101045.09;;;5.15;40.98
29371;BME280;16357;52.188;7.838;2023-04-06T02:50:40;101046.19;;;5.12;40.79
29371;BME280;16357;52.188;7.838;2023-04-06T02:53:06;101049.91;;;5.10;41.04
29371;BME280;16357;52.188;7.838;2023-04-06T02:55:32;101045.66;;;5.07;40.93
29371;BME280;16357;52.188;7.838;2023-04-06T02:57:59;101042.28;;;5.05;40.98
29371;BME280;16357;52.188;7.838;2023-04-06T03:00:25;101049.63;;;5.01;40.96
29371;BME280;16357;52.188;7.838;2023-04-06T03:02:52;101044.41;;;5.00;41.03
29371;BME280;16357;52.188;7.838;2023-04-06T03:05:19;101039.31;;;4.97;40.89
29371;BME280;16357;52.188;7.838;2023-04-06T03:07:45;101038.72;;;4.93;41.37
29371;BME280;16357;52.188;7.838;2023-04-06T03:10:12;101036.16;;;4.92;41.06
29371;BME280;16357;52.188;7.838;2023-04-06T03:12:38;101039.03;;;4.89;41.17
29371;BME280;16357;52.188;7.838;2023-04-06T03:15:05;101038.31;;;4.87;40.99
29371;BME280;16357;52.188;7.838;2023-04-06T03:17:31;101040.25;;;4.84;41.43
29371;BME280;16357;52.188;7.838;2023-04-06T03:19:58;101035.13;;;4.81;41.46
29371;BME280;16357;52.188;7.838;2023-04-06T03:22:24;101045.06;;;4.79;41.48
29371;BME280;16357;52.188;7.838;2023-04-06T03:24:51;101037.19;;;4.78;41.38
29371;BME280;16357;52.188;7.838;2023-04-06T03:27:17;101038.25;;;4.75;41.38
29371;BME280;16357;52.188;7.838;2023-04-06T03:29:44;101031.34;;;4.73;41.32
29371;BME280;16357;52.188;7.838;2023-04-06T03:32:10;101031.44;;;4.71;41.62
29371;BME280;16357;52.188;7.838;2023-04-06T03:34:38;101040.53;;;4.69;41.59
29371;BME280;16357;52.188;7.838;2023-04-06T03:37:04;101043.28;;;4.67;41.80
29371;BME280;16357;52.188;7.838;2023-04-06T03:39:36;101043.50;;;4.64;41.46
29371;BME280;16357;52.188;7.838;2023-04-06T03:42:02;101034.78;;;4.62;41.61
29371;BME280;16357;52.188;7.838;2023-04-06T03:44:29;101035.75;;;4.61;41.85
29371;BME280;16357;52.188;7.838;2023-04-06T03:46:55;101036.81;;;4.58;41.83
29371;BME280;16357;52.188;7.838;2023-04-06T03:49:22;101036.06;;;4.56;41.95
29371;BME280;16357;52.188;7.838;2023-04-06T03:51:49;101032.69;;;4.54;42.14
29371;BME280;16357;52.188;7.838;2023-04-06T03:54:15;101028.44;;;4.52;41.78
29371;BME280;16357;52.188;7.838;2023-04-06T03:56:41;101028.56;;;4.50;42.04
29371;BME280;16357;52.188;7.838;2023-04-06T03:59:08;101033.97;;;4.49;42.04
29371;BME280;16357;52.188;7.838;2023-04-06T04:01:35;101035.88;;;4.47;42.05
29371;BME280;16357;52.188;7.838;2023-04-06T04:04:01;101034.19;;;4.46;42.08
29371;BME280;16357;52.188;7.838;2023-04-06T04:06:28;101034.19;;;4.46;42.28
29371;BME280;16357;52.188;7.838;2023-04-06T04:08:54;101035.25;;;4.43;42.18
29371;BME280;16357;52.188;7.838;2023-04-06T04:11:20;101037.91;;;4.43;42.08
29371;BME280;16357;52.188;7.838;2023-04-06T04:13:47;101036.31;;;4.40;42.51
29371;BME280;16357;52.188;7.838;2023-04-06T04:16:13;101038.97;;;4.40;42.31
29371;BME280;16357;52.188;7.838;2023-04-06T04:18:40;101027.63;;;4.38;42.50
29371;BME280;16357;52.188;7.838;2023-04-06T04:21:06;101042.81;;;4.36;42.29
29371;BME280;16357;52.188;7.838;2023-04-06T04:23:33;101033.16;;;4.35;42.46
29371;BME280;16357;52.188;7.838;2023-04-06T04:26:02;101034.97;;;4.35;42.37
29371;BME280;16357;52.188;7.838;2023-04-06T04:28:28;101039.53;;;4.33;42.43
29371;BME280;16357;52.188;7.838;2023-04-06T04:30:55;101037.72;;;4.33;42.02
29371;BME280;16357;52.188;7.838;2023-04-06T04:33:22;101040.50;;;4.32;42.39
29371;BME280;16357;52.188;7.838;2023-04-06T04:35:49;101040.59;;;4.30;42.53
29371;BME280;16357;52.188;7.838;2023-04-06T04:38:15;101039.75;;;4.30;42.71
29371;BME280;16357;52.188;7.838;2023-04-06T04:40:42;101034.53;;;4.28;42.67
29371;BME280;16357;52.188;7.838;2023-04-06T04:43:08;101040.81;;;4.27;42.67
29371;BME280;16357;52.188;7.838;2023-04-06T04:45:34;101039.09;;;4.26;42.73
29371;BME280;16357;52.188;7.838;2023-04-06T04:48:01;101037.41;;;4.25;42.89
29371;BME280;16357;52.188;7.838;2023-04-06T04:50:27;101040.91;;;4.26;42.63
29371;BME280;16357;52.188;7.838;2023-04-06T04:52:54;101048.03;;;4.25;42.69
29371;BME280;16357;52.188;7.838;2023-04-06T04:55:20;101049.00;;;4.24;42.94
29371;BME280;16357;52.188;7.838;2023-04-06T04:57:46;101043.78;;;4.23;42.82
29371;BME280;16357;52.188;7.838;2023-04-06T05:00:14;101037.63;;;4.22;42.76
29371;BME280;16357;52.188;7.838;2023-04-06T05:02:40;101034.97;;;4.22;42.80
29371;BME280;16357;52.188;7.838;2023-04-06T05:05:07;101037.63;;;4.22;42.93
29371;BME280;16357;52.188;7.838;2023-04-06T05:07:34;101030.59;;;4.21;43.08
29371;BME280;16357;52.188;7.838;2023-04-06T05:10:01;101034.97;;;4.22;43.05
29371;BME280;16357;52.188;7.838;2023-04-06T05:12:27;101037.63;;;4.22;42.82
29371;BME280;16357;52.188;7.838;2023-04-06T05:14:54;101045.47;;;4.24;42.95
29371;BME280;16357;52.188;7.838;2023-04-06T05:17:20;101036.66;;;4.23;42.78
29371;BME280;16357;52.188;7.838;2023-04-06T05:19:47;101034.84;;;4.24;43.20
29371;BME280;16357;52.188;7.838;2023-04-06T05:22:13;101039.09;;;4.26;43.05
29371;BME280;16357;52.188;7.838;2023-04-06T05:24:42;101040.81;;;4.27;43.16
29371;BME280;16357;52.188;7.838;2023-04-06T05:27:09;101037.19;;;4.28;43.33
29371;BME280;16357;52.188;7.838;2023-04-06T05:29:35;101032.63;;;4.30;43.39
29371;BME280;16357;52.188;7.838;2023-04-06T05:32:02;101030.59;;;4.34;43.28
29371;BME280;16357;52.188;7.838;2023-04-06T05:34:28;101032.31;;;4.35;43.09
29371;BME280;16357;52.188;7.838;2023-04-06T05:36:55;101029.53;;;4.36;43.26
29371;BME280;16357;52.188;7.838;2023-04-06T05:39:21;101030.28;;;4.38;43.05
29371;BME280;16357;52.188;7.838;2023-04-06T05:41:49;101032.69;;;4.42;43.26
29371;BME280;16357;52.188;7.838;2023-04-06T05:44:15;101031.63;;;4.44;43.06
29371;BME280;16357;52.188;7.838;2023-04-06T05:46:42;101032.28;;;4.48;43.08
29371;BME280;16357;52.188;7.838;2023-04-06T05:49:08;101030.34;;;4.50;43.04
29371;BME280;16357;52.188;7.838;2023-04-06T05:51:35;101028.19;;;4.55;42.91
29371;BME280;16357;52.188;7.838;2023-04-06T05:54:01;101032.34;;;4.59;43.01
29371;BME280;16357;52.188;7.838;2023-04-06T05:56:28;101033.81;;;4.63;42.98
29371;BME280;16357;52.188;7.838;2023-04-06T05:58:56;101034.31;;;4.68;42.98
29371;BME280;16357;52.188;7.838;2023-04-06T06:01:22;101032.31;;;4.72;43.01
29371;BME280;16357;52.188;7.838;2023-04-06T06:03:49;101029.31;;;4.76;42.86
29371;BME280;16357;52.188;7.838;2023-04-06T06:06:15;101024.50;;;4.81;42.90
29371;BME280;16357;52.188;7.838;2023-04-06T06:08:42;101025.97;;;4.86;43.06
29371;BME280;16357;52.188;7.838;2023-04-06T06:11:08;101030.84;;;4.92;43.02
29371;BME280;16357;52.188;7.838;2023-04-06T06:13:35;101022.53;;;4.96;42.59
29371;BME280;16357;52.188;7.838;2023-04-06T06:16:01;101024.88;;;5.01;42.89
29371;BME280;16357;52.188;7.838;2023-04-06T06:18:31;101028.88;;;5.06;42.85
29371;BME280;16357;52.188;7.838;2023-04-06T06:20:58;101027.56;;;5.12;42.62
29371;BME280;16357;52.188;7.838;2023-04-06T06:23:25;101027.09;;;5.18;42.58
29371;BME280;16357;52.188;7.838;2023-04-06T06:25:51;101035.47;;;5.25;42.77
29371;BME280;16357;52.188;7.838;2023-04-06T06:28:18;101026.19;;;5.31;42.50
29371;BME280;16357;52.188;7.838;2023-04-06T06:30:44;101023.94;;;5.37;42.38
29371;BME280;16357;52.188;7.838;2023-04-06T06:33:10;101031.44;;;5.43;42.61
29371;BME280;16357;52.188;7.838;2023-04-06T06:35:37;101028.19;;;5.51;42.82
29371;BME280;16357;52.188;7.838;2023-04-06T06:38:03;101027.72;;;5.57;42.64
29371;BME280;16357;52.188;7.838;2023-04-06T06:40:30;101038.63;;;5.65;42.65
29371;BME280;16357;52.188;7.838;2023-04-06T06:42:57;101042.53;;;5.72;42.30
29371;BME280;16357;52.188;7.838;2023-04-06T06:45:23;101042.66;;;5.82;42.76
29371;BME280;16357;52.188;7.838;2023-04-06T06:47:51;101034.09;;;5.90;42.32
29371;BME280;16357;52.188;7.838;2023-04-06T06:50:21;101036.91;;;6.00;42.07
29371;BME280;16357;52.188;7.838;2023-04-06T06:52:47;101030.97;;;6.07;42.16
29371;BME280;16357;52.188;7.838;2023-04-06T06:55:14;101031.22;;;6.15;42.10
29371;BME280;16357;52.188;7.838;2023-04-06T06:57:41;101026.13;;;6.24;42.37
29371;BME280;16357;52.188;7.838;2023-04-06T07:00:09;101033.41;;;6.33;41.92
29371;BME280;16357;52.188;7.838;2023-04-06T07:02:38;101030.00;;;6.42;41.81
29371;BME280;16357;52.188;7.838;2023-04-06T07:05:06;101023.94;;;6.51;41.95
29371;BME280;16357;52.188;7.838;2023-04-06T07:07:53;101021.25;;;6.63;42.06
29371;BME280;16357;52.188;7.838;2023-04-06T07:10:19;101023.19;;;6.72;41.77
29371;BME280;16357;52.188;7.838;2023-04-06T07:12:46;101014.44;;;6.81;41.39
29371;BME280;16357;52.188;7.838;2023-04-06T07:15:13;101017.31;;;6.89;41.67
29371;BME280;16357;52.188;7.838;2023-04-06T07:17:39;101014.75;;;6.99;41.21
29371;BME280;16357;52.188;7.838;2023-04-06T07:20:07;101006.94;;;7.07;41.28
29371;BME280;16357;52.188;7.838;2023-04-06T07:22:34;101000.13;;;7.14;41.53
29371;BME280;16357;52.188;7.838;2023-04-06T07:25:00;101012.69;;;7.23;41.08
29371;BME280;16357;52.188;7.838;2023-04-06T07:27:27;101007.56;;;7.32;41.02
29371;BME280;16357;52.188;7.838;2023-04-06T07:29:53;101004.25;;;7.39;41.18
29371;BME280;16357;52.188;7.838;2023-04-06T07:32:20;101006.28;;;7.47;41.31
29371;BME280;16357;52.188;7.838;2023-04-06T07:34:46;101010.84;;;7.56;41.18
29371;BME280;16357;52.188;7.838;2023-04-06T07:37:13;101002.19;;;7.64;41.28
29371;BME280;16357;52.188;7.838;2023-04-06T07:39:39;101010.38;;;7.72;40.83
29371;BME280;16357;52.188;7.838;2023-04-06T07:42:06;100996.38;;;7.80;40.55
29371;BME280;16357;52.188;7.838;2023-04-06T07:44:33;100997.28;;;7.90;40.55
29371;BME280;16357;52.188;7.838;2023-04-06T07:46:59;100999.25;;;7.98;40.48
29371;BME280;16357;52.188;7.838;2023-04-06T07:49:26;100998.59;;;8.05;40.45
29371;BME280;16357;52.188;7.838;2023-04-06T07:51:53;100998.78;;;8.13;40.81
29371;BME280;16357;52.188;7.838;2023-04-06T07:54:20;101005.00;;;8.24;40.59
29371;BME280;16357;52.188;7.838;2023-04-06T07:56:46;100998.97;;;8.31;40.18
29371;BME280;16357;52.188;7.838;2023-04-06T07:59:13;101006.25;;;8.41;40.48
29371;BME280;16357;52.188;7.838;2023-04-06T08:01:40;100996.69;;;8.48;40.43
29371;BME280;16357;52.188;7.838;2023-04-06T08:04:06;100993.19;;;8.57;40.44
29371;BME280;16357;52.188;7.838;2023-04-06T08:06:33;101005.75;;;8.66;40.26
29371;BME280;16357;52.188;7.838;2023-04-06T08:09:00;101004.91;;;8.75;39.99
29371;BME280;16357;52.188;7.838;2023-04-06T08:11:27;101004.09;;;8.85;39.52
29371;BME280;16357;52.188;7.838;2023-04-06T08:13:54;100994.38;;;8.93;39.63
29371;BME280;16357;52.188;7.838;2023-04-06T08:16:22;100998.88;;;9.02;39.70
29371;BME280;16357;52.188;7.838;2023-04-06T08:18:48;100992.69;;;9.12;39.36
29371;BME280;16357;52.188;7.838;2023-04-06T08:21:15;100997.91;;;9.23;39.31
29371;BME280;16357;52.188;7.838;2023-04-06T08:23:41;100997.91;;;9.33;38.85
29371;BME280;16357;52.188;7.838;2023-04-06T08:26:08;100998.75;;;9.43;38.39
29371;BME280;16357;52.188;7.838;2023-04-06T08:28:35;100997.75;;;9.54;38.50
29371;BME280;16357;52.188;7.838;2023-04-06T08:31:05;100998.56;;;9.64;38.54
29371;BME280;16357;52.188;7.838;2023-04-06T08:33:33;100998.41;;;9.75;38.02
29371;BME280;16357;52.188;7.838;2023-04-06T08:36:13;100992.03;;;9.86;38.15
29371;BME280;16357;52.188;7.838;2023-04-06T08:38:41;100991.13;;;9.95;38.20
29371;BME280;16357;52.188;7.838;2023-04-06T08:41:10;100991.28;;;10.03;37.86
29371;BME280;16357;52.188;7.838;2023-04-06T08:43:58;100985.84;;;10.13;38.16
29371;BME280;16357;52.188;7.838;2023-04-06T08:46:26;100979.75;;;10.21;38.00
29371;BME280;16357;52.188;7.838;2023-04-06T08:49:01;100986.66;;;10.33;37.78
29371;BME280;16357;52.188;7.838;2023-04-06T08:51:29;100975.31;;;10.39;37.88
29371;BME280;16357;52.188;7.838;2023-04-06T08:53:58;100975.28;;;10.49;37.65
29371;BME280;16357;52.188;7.838;2023-04-06T08:56:28;100974.34;;;10.58;37.83
29371;BME280;16357;52.188;7.838;2023-04-06T08:58:55;100980.69;;;10.67;37.53
29371;BME280;16357;52.188;7.838;2023-04-06T09:01:27;100979.75;;;10.76;37.27
29371;BME280;16357;52.188;7.838;2023-04-06T09:03:58;100981.53;;;10.85;37.18
29371;BME280;16357;52.188;7.838;2023-04-06T09:06:27;100972.72;;;10.93;37.14
29371;BME280;16357;52.188;7.838;2023-04-06T09:08:53;100976.16;;;11.03;37.04
29371;BME280;16357;52.188;7.838;2023-04-06T09:11:21;100980.75;;;11.11;37.11
29371;BME280;16357;52.188;7.838;2023-04-06T09:13:49;100980.69;;;11.20;37.09
29371;BME280;16357;52.188;7.838;2023-04-06T09:16:17;100968.16;;;11.29;36.77
29371;BME280;16357;52.188;7.838;2023-04-06T09:18:44;100964.69;;;11.37;36.98
29371;BME280;16357;52.188;7.838;2023-04-06T09:21:11;100975.38;;;11.47;36.69
29371;BME280;16357;52.188;7.838;2023-04-06T09:23:38;100967.34;;;11.55;36.73
29371;BME280;16357;52.188;7.838;2023-04-06T09:28:42;100958.09;;;11.75;36.73
29371;BME280;16357;52.188;7.838;2023-04-06T09:31:09;100959.81;;;11.84;36.76
29371;BME280;16357;52.188;7.838;2023-04-06T09:33:41;100957.88;;;11.95;37.02
29371;BME280;16357;52.188;7.838;2023-04-06T09:36:08;100950.72;;;12.03;36.22
29371;BME280;16357;52.188;7.838;2023-04-06T09:38:55;100955.63;;;12.16;36.09
29371;BME280;16357;52.188;7.838;2023-04-06T09:41:26;100945.78;;;12.25;36.02
29371;BME280;16357;52.188;7.838;2023-04-06T09:44:03;100941.94;;;12.36;36.22
29371;BME280;16357;52.188;7.838;2023-04-06T09:46:41;100933.88;;;12.44;35.87
29371;BME280;16357;52.188;7.838;2023-04-06T09:49:30;100937.28;;;12.54;35.22
29371;BME280;16357;52.188;7.838;2023-04-06T09:51:59;100940.81;;;12.63;35.17
29371;BME280;16357;52.188;7.838;2023-04-06T09:54:28;100943.53;;;12.71;34.99
29371;BME280;16357;52.188;7.838;2023-04-06T09:57:04;100935.47;;;12.79;35.23
29371;BME280;16357;52.188;7.838;2023-04-06T10:02:05;100930.97;;;12.96;34.75
29371;BME280;16357;52.188;7.838;2023-04-06T10:04:53;100931.63;;;13.06;35.03
29371;BME280;16357;52.188;7.838;2023-04-06T10:07:22;100932.47;;;13.15;34.45
29371;BME280;16357;52.188;7.838;2023-04-06T10:09:49;100935.00;;;13.25;34.22
29371;BME280;16357;52.188;7.838;2023-04-06T10:12:16;100931.50;;;13.32;34.17
29371;BME280;16357;52.188;7.838;2023-04-06T10:14:43;100921.69;;;13.39;34.37
29371;BME280;16357;52.188;7.838;2023-04-06T10:17:11;100925.56;;;13.45;34.12
29371;BME280;16357;52.188;7.838;2023-04-06T10:19:53;100918.31;;;13.54;34.55
29371;BME280;16357;52.188;7.838;2023-04-06T10:22:32;100927.22;;;13.63;34.28
29371;BME280;16357;52.188;7.838;2023-04-06T10:25:01;100926.53;;;13.69;33.47
29371;BME280;16357;52.188;7.838;2023-04-06T10:27:28;100930.22;;;13.76;33.61
29371;BME280;16357;52.188;7.838;2023-04-06T10:30:04;100928.34;;;13.84;33.69
29371;BME280;16357;52.188;7.838;2023-04-06T10:32:38;100929.19;;;13.93;33.49
29371;BME280;16357;52.188;7.838;2023-04-06T10:35:09;100938.22;;;14.00;33.32
29371;BME280;16357;52.188;7.838;2023-04-06T10:38:07;100927.25;;;14.10;33.35
29371;BME280;16357;52.188;7.838;2023-04-06T10:40:38;100928.91;;;14.19;33.38
29371;BME280;16357;52.188;7.838;2023-04-06T10:43:12;100918.91;;;14.28;33.26
29371;BME280;16357;52.188;7.838;2023-04-06T10:45:40;100916.31;;;14.35;32.95
29371;BME280;16357;52.188;7.838;2023-04-06T10:48:17;100905.31;;;14.44;33.11
29371;BME280;16357;52.188;7.838;2023-04-06T10:50:46;100912.69;;;14.50;32.29
29371;BME280;16357;52.188;7.838;2023-04-06T10:53:24;100901.72;;;14.60;32.39
29371;BME280;16357;52.188;7.838;2023-04-06T10:55:54;100904.34;;;14.68;32.09
29371;BME280;16357;52.188;7.838;2023-04-06T10:58:25;100903.09;;;14.79;32.27
29371;BME280;16357;52.188;7.838;2023-04-06T11:00:52;100895.97;;;14.86;31.96
29371;BME280;16357;52.188;7.838;2023-04-06T11:03:20;100899.25;;;14.97;31.83
29371;BME280;16357;52.188;7.838;2023-04-06T11:05:48;100897.16;;;15.07;31.37
29371;BME280;16357;52.188;7.838;2023-04-06T11:08:25;100884.03;;;15.19;31.56
29371;BME280;16357;52.188;7.838;2023-04-06T11:11:03;100888.16;;;15.29;31.71
29371;BME280;16357;52.188;7.838;2023-04-06T11:13:41;100888.56;;;15.41;31.59
29371;BME280;16357;52.188;7.838;2023-04-06T11:16:16;100878.09;;;15.53;31.04
29371;BME280;16357;52.188;7.838;2023-04-06T11:21:13;100876.94;;;15.70;30.38
29371;BME280;16357;52.188;7.838;2023-04-06T11:23:39;100885.63;;;15.80;29.57
29371;BME280;16357;52.188;7.838;2023-04-06T11:26:13;100874.31;;;15.92;30.31
29371;BME280;16357;52.188;7.838;2023-04-06T11:28:43;100874.69;;;16.04;30.07
29371;BME280;16357;52.188;7.838;2023-04-06T11:31:10;100877.91;;;16.14;29.51
29371;BME280;16357;52.188;7.838;2023-04-06T11:33:38;100867.84;;;16.22;29.51
29371;BME280;16357;52.188;7.838;2023-04-06T11:36:05;100874.63;;;16.33;29.29
29371;BME280;16357;52.188;7.838;2023-04-06T11:38:33;100871.78;;;16.41;28.76
29371;BME280;16357;52.188;7.838;2023-04-06T11:41:00;100868.13;;;16.49;28.85
29371;BME280;16357;52.188;7.838;2023-04-06T11:43:29;100864.47;;;16.57;28.84
29371;BME280;16357;52.188;7.838;2023-04-06T11:46:03;100866.19;;;16.64;29.08
29371;BME280;16357;52.188;7.838;2023-04-06T11:48:30;100857.13;;;16.72;28.77
29371;BME280;16357;52.188;7.838;2023-04-06T11:50:58;100856.19;;;16.80;27.99
29371;BME280;16357;52.188;7.838;2023-04-06T11:53:28;100851.63;;;16.87;28.14
29371;BME280;16357;52.188;7.838;2023-04-06T11:55:56;100850.22;;;16.91;27.98
29371;BME280;16357;52.188;7.838;2023-04-06T11:58:22;100854.03;;;16.97;27.96
29371;BME280;16357;52.188;7.838;2023-04-06T12:00:49;100848.03;;;17.01;27.95
29371;BME280;16357;52.188;7.838;2023-04-06T12:03:15;100857.63;;;17.04;27.84
29371;BME280;16357;52.188;7.838;2023-04-06T12:05:43;100857.88;;;17.09;27.40
29371;BME280;16357;52.188;7.838;2023-04-06T12:08:09;100851.22;;;17.11;27.61
29371;BME280;16357;52.188;7.838;2023-04-06T12:10:37;100847.91;;;17.16;27.52
29371;BME280;16357;52.188;7.838;2023-04-06T12:13:03;100853.38;;;17.23;27.92
29371;BME280;16357;52.188;7.838;2023-04-06T12:15:30;100848.00;;;17.29;27.72
29371;BME280;16357;52.188;7.838;2023-04-06T12:17:57;100846.81;;;17.39;27.75
29371;BME280;16357;52.188;7.838;2023-04-06T12:20:24;100843.78;;;17.48;27.79
29371;BME280;16357;52.188;7.838;2023-04-06T12:22:53;100837.53;;;17.54;27.15
29371;BME280;16357;52.188;7.838;2023-04-06T12:25:19;100831.31;;;17.61;27.02
29371;BME280;16357;52.188;7.838;2023-04-06T12:27:46;100836.31;;;17.64;26.50
29371;BME280;16357;52.188;7.838;2023-04-06T12:30:13;100836.97;;;17.66;26.43
29371;BME280;16357;52.188;7.838;2023-04-06T12:32:40;100839.91;;;17.64;26.49
29371;BME280;16357;52.188;7.838;2023-04-06T12:35:07;100833.00;;;17.62;26.70
29371;BME280;16357;52.188;7.838;2023-04-06T12:37:35;100833.81;;;17.62;26.73
29371;BME280;16357;52.188;7.838;2023-04-06T12:40:02;100828.19;;;17.64;26.34
29371;BME280;16357;52.188;7.838;2023-04-06T12:42:29;100835.09;;;17.66;26.59
29371;BME280;16357;52.188;7.838;2023-04-06T12:44:55;100834.47;;;17.71;26.61
29371;BME280;16357;52.188;7.838;2023-04-06T12:47:22;100832.00;;;17.76;26.56
29371;BME280;16357;52.188;7.838;2023-04-06T12:49:49;100829.75;;;17.80;26.28
29371;BME280;16357;52.188;7.838;2023-04-06T12:52:16;100820.00;;;17.85;25.90
29371;BME280;16357;52.188;7.838;2023-04-06T12:54:43;100828.34;;;17.90;26.12
29371;BME280;16357;52.188;7.838;2023-04-06T12:57:09;100821.28;;;17.96;26.05
29371;BME280;16357;52.188;7.838;2023-04-06T12:59:36;100827.56;;;18.03;25.85
29371;BME280;16357;52.188;7.838;2023-04-06T13:02:04;100823.41;;;18.07;25.89
29371;BME280;16357;52.188;7.838;2023-04-06T13:04:32;100810.88;;;18.13;25.50
29371;BME280;16357;52.188;7.838;2023-04-06T13:06:58;100820.09;;;18.18;25.81
29371;BME280;16357;52.188;7.838;2023-04-06T13:09:25;100817.59;;;18.24;25.84